Temp: 14.7°C   Baro: 1019.3mb
  Wind: 2.9mph   Dir: NNW (327°)
  Rain: 0.2mm (0.0mm/hr)
  Solar: 278W/m2  Hum: 72%
 
Bath Spa Weather Station Historical Data
Daily Summary for May 7, 2020 Units:  Metric    English   Both
Daily Weekly Monthly Yearly Custom
  High: Low: Average:
Temperature: 17.2 °C 11.6 °C 14.6 °C
Dew Point: 12.8 °C 8.7 °C 11.2 °C
Humidity: 92% 66.8% 80%
Wind Speed: 15.1km/h 0km/h 5.6km/h
Wind Gust: 27.4km/h - -
Wind- - West
Pressure: 1023.9 hPa 1015.8 hPa -
Precipitation: 0.76 mm    
Historical Graphs
 
 
Tabular Data for May 7, 2020
Time Temperature Dew Point Pressure Wind Wind Speed Wind Gust Humidity Rainfall Rate (Hourly) solar
00:04 12.4 °C 9.2 °C 1023.9 hPa Calm   3.2 km/h 80.8% 0 mm 0 W/m2
00:09 12.3 °C 9.1 °C 1023.6 hPa Calm     81% 0 mm 0 W/m2
00:14 12.2 °C 9 °C 1023.9 hPa Calm     81% 0 mm 0 W/m2
00:19 12.2 °C 8.9 °C 1023.6 hPa Calm     81% 0 mm 0 W/m2
00:24 12 °C 8.8 °C 1023.6 hPa Calm     81% 0 mm 0 W/m2
00:29 11.8 °C 8.8 °C 1023.6 hPa Calm     81.8% 0 mm 0 W/m2
00:34 11.8 °C 8.8 °C 1023.6 hPa Calm     82% 0 mm 0 W/m2
00:39 11.7 °C 8.7 °C 1023.6 hPa Calm     82% 0 mm 0 W/m2
00:44 11.6 °C 8.8 °C 1023.6 hPa Calm     83% 0 mm 0 W/m2
00:49 11.6 °C 8.8 °C 1023.6 hPa Calm     83% 0 mm 0 W/m2
00:54 11.7 °C 8.9 °C 1023.6 hPa Calm     83.2% 0 mm 0 W/m2
00:59 11.7 °C 9.1 °C 1023.6 hPa Calm     84% 0 mm 0 W/m2
01:04 11.8 °C 9.2 °C 1023.6 hPa Calm     84% 0 mm 0 W/m2
01:09 11.8 °C 9.2 °C 1023.6 hPa Calm     84% 0 mm 0 W/m2
01:14 11.8 °C 9.1 °C 1023.2 hPa Calm     83.4% 0 mm 0 W/m2
01:19 11.7 °C 8.9 °C 1023.6 hPa Calm     83% 0 mm 0 W/m2
01:24 11.7 °C 8.9 °C 1023.2 hPa Calm     83% 0 mm 0 W/m2
01:29 11.7 °C 8.9 °C 1023.2 hPa Calm     83% 0 mm 0 W/m2
01:34 11.6 °C 8.8 °C 1023.2 hPa Calm     83% 0 mm 0 W/m2
01:39 11.7 °C 8.9 °C 1023.2 hPa Calm     83% 0 mm 0 W/m2
01:44 11.7 °C 8.9 °C 1023.2 hPa Calm     83% 0 mm 0 W/m2
01:49 11.7 °C 8.9 °C 1023.2 hPa Calm     83% 0 mm 0 W/m2
01:54 11.8 °C 9.2 °C 1023.2 hPa Calm     84% 0 mm 0 W/m2
01:59 11.8 °C 9.2 °C 1023.2 hPa Calm     84% 0 mm 0 W/m2
02:03 11.8 °C 9.2 °C 1023.2 hPa Calm     84% 0 mm 0 W/m2
02:09 11.9 °C 9.3 °C 1023.2 hPa Calm     84% 0 mm 0 W/m2
02:14 11.9 °C 9.3 °C 1023.2 hPa Calm     84% 0 mm 0 W/m2
02:19 12.1 °C 9.4 °C 1023.2 hPa Calm     84% 0 mm 0 W/m2
02:24 12.2 °C 9.6 °C 1023.2 hPa Calm     84.2% 0 mm 0 W/m2
02:29 12.3 °C 9.9 °C 1023.2 hPa Calm     85% 0 mm 0 W/m2
02:34 12.3 °C 9.9 °C 1023.2 hPa Calm     85% 0 mm 0 W/m2
02:39 12.3 °C 10 °C 1023.2 hPa Calm     86% 0 mm 0 W/m2
02:44 12.3 °C 9.9 °C 1023.2 hPa Calm     86% 0 mm 0 W/m2
02:49 12.2 °C 9.9 °C 1022.9 hPa Calm     86% 0 mm 0 W/m2
02:54 12.2 °C 9.9 °C 1023.2 hPa Calm     86% 0 mm 0 W/m2
02:59 12.2 °C 9.9 °C 1023.2 hPa Calm     86% 0 mm 0 W/m2
03:04 12.3 °C 9.9 °C 1022.9 hPa Calm     86% 0 mm 0 W/m2
03:09 12.2 °C 9.9 °C 1022.9 hPa Calm     86% 0 mm 0 W/m2
03:14 12.2 °C 9.9 °C 1022.9 hPa Calm     86% 0 mm 0 W/m2
03:18 12.3 °C 10.1 °C 1022.6 hPa Calm     86.8% 0 mm 0 W/m2
03:24 12.3 °C 10.2 °C 1022.6 hPa Calm     87% 0 mm 0 W/m2
03:29 12.3 °C 10.2 °C 1022.6 hPa Calm     87% 0 mm 0 W/m2
03:34 12.4 °C 10.3 °C 1022.6 hPa Calm     87% 0 mm 0 W/m2
03:39 12.4 °C 10.3 °C 1022.6 hPa Calm     87% 0 mm 0 W/m2
03:44 12.4 °C 10.3 °C 1022.2 hPa Calm     87.2% 0 mm 0 W/m2
03:49 12.4 °C 10.5 °C 1022.2 hPa Calm     88% 0 mm 0 W/m2
03:54 12.4 °C 10.5 °C 1022.2 hPa Calm     88% 0 mm 0 W/m2
03:59 12.4 °C 10.5 °C 1022.2 hPa Calm     88% 0 mm 0 W/m2
04:04 12.4 °C 10.5 °C 1022.2 hPa Calm     88% 0 mm 0 W/m2
04:09 12.4 °C 10.6 °C 1022.2 hPa Calm     88% 0 mm 0 W/m2
04:13 12.4 °C 10.5 °C 1022.2 hPa Calm     88% 0 mm 0 W/m2
04:19 12.4 °C 10.5 °C 1022.2 hPa Calm     88% 0 mm 0 W/m2
04:24 12.4 °C 10.5 °C 1021.9 hPa Calm     88% 0 mm 0 W/m2
04:29 12.4 °C 10.5 °C 1022.2 hPa Calm     88% 0 mm 0 W/m2
04:34 12.5 °C 10.6 °C 1022.2 hPa Calm     88% 0 mm 0 W/m2
04:39 12.6 °C 10.7 °C 1022.2 hPa Calm     88% 0 mm 0 W/m2
04:44 12.5 °C 10.6 °C 1021.9 hPa Calm     88% 0 mm 0 W/m2
04:49 12.6 °C 10.7 °C 1021.9 hPa Calm     88% 0 mm 0 W/m2
04:54 12.6 °C 10.7 °C 1021.9 hPa Calm     88% 0 mm 0 W/m2
04:59 12.6 °C 10.7 °C 1021.9 hPa Calm     88.2% 0 mm 0 W/m2
05:04 12.5 °C 10.6 °C 1021.9 hPa Calm     88% 0 mm 0 W/m2
05:09 12.5 °C 10.6 °C 1021.9 hPa Calm     88% 0 mm 0 W/m2
05:14 12.4 °C 10.5 °C 1021.9 hPa Calm     88.2% 0 mm 5 W/m2
05:19 12.4 °C 10.6 °C 1021.9 hPa Calm     89% 0 mm 9 W/m2
05:24 12.4 °C 10.6 °C 1021.9 hPa Calm     89% 0 mm 11 W/m2
05:29 12.3 °C 10.6 °C 1021.9 hPa Calm     89% 0 mm 12 W/m2
05:34 12.3 °C 10.5 °C 1021.6 hPa Calm     89% 0 mm 16 W/m2
05:39 12.3 °C 10.4 °C 1021.6 hPa Calm     89% 0 mm 21 W/m2
05:44 12.2 °C 10.4 °C 1021.6 hPa Calm     89% 0 mm 26 W/m2
05:49 12.2 °C 10.3 °C 1021.6 hPa Calm     89% 0 mm 32 W/m2
05:54 12.2 °C 10.4 °C 1021.6 hPa Calm     89% 0 mm 33 W/m2
05:59 12.2 °C 10.4 °C 1021.2 hPa Calm     89% 0 mm 33 W/m2
06:04 12.2 °C 10.4 °C 1021.2 hPa Calm     89% 0 mm 30 W/m2
06:09 12.3 °C 10.6 °C 1021.6 hPa Calm     89.4% 0 mm 35 W/m2
06:14 12.3 °C 10.7 °C 1021.6 hPa Calm     90% 0 mm 40 W/m2
06:19 12.3 °C 10.7 °C 1021.6 hPa Calm     90% 0 mm 49 W/m2
06:24 12.4 °C 10.8 °C 1021.6 hPa Calm     90% 0 mm 53 W/m2
06:29 12.4 °C 10.8 °C 1021.6 hPa Calm     90% 0 mm 67 W/m2
06:34 12.4 °C 10.8 °C 1021.2 hPa Calm     90% 0 mm 70 W/m2
06:39 12.6 °C 10.9 °C 1021.2 hPa Calm     90% 0 mm 70 W/m2
06:44 12.7 °C 11.1 °C 1021.6 hPa Calm     90% 0 mm 91 W/m2
06:49 12.8 °C 11.2 °C 1021.6 hPa Calm     90% 0 mm 142 W/m2
06:54 13 °C 11.4 °C 1021.6 hPa Calm     90% 0 mm 137 W/m2
06:59 13.1 °C 11.4 °C 1021.2 hPa Calm     89.8% 0 mm 144 W/m2
07:04 13.2 °C 11.4 °C 1021.2 hPa Calm     89.2% 0 mm 102 W/m2
07:09 13.2 °C 11.4 °C 1021.2 hPa Calm     89% 0 mm 163 W/m2
07:14 13.2 °C 11.4 °C 1021.2 hPa Calm     89% 0 mm 178 W/m2
07:24 13.6 °C 11.7 °C 1021.2 hPa Calm     89% 0 mm 192 W/m2
07:29 13.7 °C 11.8 °C 1021.2 hPa Calm     89% 0 mm 216 W/m2
07:34 13.8 °C 11.8 °C 1021.2 hPa WNW 6.1 km/h 17.7 km/h 88% 0 mm 236 W/m2
07:39 14.2 °C 12.1 °C 1021.2 hPa West 10 km/h 16.1 km/h 87.4% 0 mm 234 W/m2
07:44 14.3 °C 12 °C 1021.2 hPa West 8.9 km/h 14.5 km/h 86% 0 mm 243 W/m2
07:49 14.6 °C 12.1 °C 1021.2 hPa West 12.6 km/h 16.1 km/h 85% 0 mm 265 W/m2
07:54 14.6 °C 11.9 °C 1021.2 hPa West 7.7 km/h 16.1 km/h 84% 0 mm 294 W/m2
07:59 14.8 °C 11.9 °C 1021.2 hPa WNW 7.9 km/h 12.9 km/h 83.2% 0 mm 359 W/m2
08:04 14.9 °C 12 °C 1021.2 hPa West 6.3 km/h 14.5 km/h 82.8% 0 mm 294 W/m2
08:09 14.8 °C 11.6 °C 1021.2 hPa West 11.9 km/h 16.1 km/h 80.8% 0 mm 178 W/m2
08:14 14.7 °C 11.3 °C 1021.2 hPa West 8.7 km/h 17.7 km/h 80% 0 mm 237 W/m2
08:19 14.8 °C 11.3 °C 1021.2 hPa West 7.7 km/h 16.1 km/h 79.8% 0 mm 322 W/m2
08:24 14.8 °C 11.3 °C 1021.2 hPa West 8 km/h 12.9 km/h 79.5% 0 mm 399 W/m2
08:29 15 °C 11.4 °C 1021.2 hPa WNW 5.5 km/h 14.5 km/h 79.2% 0 mm 415 W/m2
08:34 15.2 °C 11.3 °C 1021.2 hPa West 8.5 km/h 17.7 km/h 77.4% 0 mm 450 W/m2
08:39 15.2 °C 10.9 °C 1021.2 hPa WNW 8.4 km/h 14.5 km/h 75.4% 0 mm 334 W/m2
08:44 15.4 °C 11 °C 1021.2 hPa WNW 5.1 km/h 11.3 km/h 75% 0 mm 360 W/m2
08:49 15.7 °C 11.1 °C 1021.2 hPa West 8 km/h 14.5 km/h 74.2% 0 mm 513 W/m2
08:54 15.9 °C 10.9 °C 1021.2 hPa WSW 5.3 km/h 12.9 km/h 72.4% 0 mm 415 W/m2
08:59 16 °C 11 °C 1021.2 hPa West 4.5 km/h 9.7 km/h 72% 0 mm 248 W/m2
09:04 16.1 °C 11.1 °C 1021.2 hPa WNW 8.4 km/h 17.7 km/h 72% 0 mm 434 W/m2
09:09 16.2 °C 11.1 °C 1021.2 hPa WNW 8.7 km/h 14.5 km/h 72% 0 mm 434 W/m2
09:14 16.2 °C 11.1 °C 1021.2 hPa West 9.2 km/h 14.5 km/h 71.8% 0 mm 322 W/m2
09:19 16.1 °C 10.9 °C 1021.2 hPa SW 9.7 km/h 16.1 km/h 71.6% 0 mm 360 W/m2
09:24 15.9 °C 10.7 °C 1021.2 hPa West 11.6 km/h 19.3 km/h 71.4% 0 mm 318 W/m2
09:29 15.9 °C 10.6 °C 1021.2 hPa West 8.4 km/h 16.1 km/h 71% 0 mm 278 W/m2
09:34 15.8 °C 10.3 °C 1021.2 hPa West 10.9 km/h 17.7 km/h 70% 0 mm 297 W/m2
09:39 15.8 °C 10.2 °C 1021.2 hPa West 9.2 km/h 16.1 km/h 69.6% 0 mm 302 W/m2
09:44 15.8 °C 10.3 °C 1021.2 hPa West 8 km/h 14.5 km/h 70% 0 mm 401 W/m2
09:49 15.8 °C 10.1 °C 1021.2 hPa WSW 12.9 km/h 19.3 km/h 68.8% 0 mm 397 W/m2
09:54 15.7 °C 9.8 °C 1020.9 hPa West 11.9 km/h 19.3 km/h 68% 0 mm 309 W/m2
09:59 15.7 °C 10 °C 1020.9 hPa WNW 7.7 km/h 11.3 km/h 69% 0 mm 336 W/m2
10:04 15.8 °C 9.8 °C 1020.9 hPa West 7.2 km/h 14.5 km/h 67.8% 0 mm 374 W/m2
10:09 15.9 °C 9.8 °C 1020.9 hPa West 10 km/h 14.5 km/h 67% 0 mm 367 W/m2
10:14 15.9 °C 9.7 °C 1020.9 hPa WNW 10 km/h 20.9 km/h 66.8% 0 mm 353 W/m2
10:19 15.9 °C 9.9 °C 1021.2 hPa WSW 11.9 km/h 20.9 km/h 67.6% 0 mm 413 W/m2
10:24 15.9 °C 10 °C 1021.2 hPa WSW 11.9 km/h 20.9 km/h 68% 0 mm 403 W/m2
10:29 15.8 °C 10.1 °C 1020.9 hPa West 10.5 km/h 17.7 km/h 68.6% 0 mm 322 W/m2
10:34 15.8 °C 10.2 °C 1020.9 hPa WNW 9.2 km/h 17.7 km/h 69.2% 0 mm 304 W/m2
10:39 15.8 °C 10.2 °C 1020.9 hPa WNW 10 km/h 19.3 km/h 69.6% 0 mm 302 W/m2
10:44 15.7 °C 10.3 °C 1020.9 hPa West 10.9 km/h 16.1 km/h 70.2% 0 mm 288 W/m2
10:49 15.7 °C 10.6 °C 1020.9 hPa West 8.4 km/h 14.5 km/h 71% 0 mm 369 W/m2
10:54 15.8 °C 10.6 °C 1020.9 hPa West 9.7 km/h 16.1 km/h 71% 0 mm 376 W/m2
10:59 15.9 °C 10.7 °C 1020.9 hPa WSW 9.2 km/h 12.9 km/h 71% 0 mm 271 W/m2
11:04 16 °C 10.7 °C 1020.9 hPa West 9.7 km/h 14.5 km/h 71% 0 mm 229 W/m2
11:09 15.9 °C 10.7 °C 1020.9 hPa West 9.2 km/h 16.1 km/h 71.2% 0 mm 214 W/m2
11:14 15.9 °C 10.6 °C 1020.9 hPa WSW 10.6 km/h 16.1 km/h 71% 0 mm 223 W/m2
11:19 15.9 °C 10.7 °C 1020.5 hPa West 7.7 km/h 16.1 km/h 71% 0 mm 264 W/m2
11:24 16.1 °C 10.8 °C 1020.5 hPa WSW 7.2 km/h 14.5 km/h 71% 0 mm 269 W/m2
11:29 16.1 °C 10.8 °C 1020.5 hPa WSW 8 km/h 16.1 km/h 71% 0 mm 258 W/m2
11:34 16.2 °C 10.9 °C 1020.5 hPa West 7.6 km/h 12.9 km/h 71.2% 0 mm 244 W/m2
11:39 16.1 °C 11.1 °C 1020.5 hPa WSW 5.1 km/h 11.3 km/h 72% 0 mm 153 W/m2
11:44 16.2 °C 11.1 °C 1020.5 hPa West 6 km/h 12.9 km/h 72% 0 mm 79 W/m2
11:49 16.1 °C 11.2 °C 1020.5 hPa West 4.7 km/h 12.9 km/h 72.4% 0 mm 111 W/m2
11:54 16.1 °C 11.1 °C 1020.5 hPa West 4 km/h 12.9 km/h 72.4% 0 mm 163 W/m2
11:59 16.1 °C 11.2 °C 1020.2 hPa WNW 5 km/h 11.3 km/h 72.6% 0 mm 211 W/m2
12:04 16.1 °C 11.2 °C 1020.2 hPa West 5.6 km/h 11.3 km/h 72.8% 0 mm 290 W/m2
12:08 16.2 °C 11.1 °C 1020.2 hPa West 5.6 km/h 11.3 km/h 72% 0 mm 355 W/m2
12:14 16.3 °C 10.9 °C 1020.2 hPa WNW 8.5 km/h 12.9 km/h 70.4% 0 mm 429 W/m2
12:19 16.6 °C 11.1 °C 1020.2 hPa WNW 5.1 km/h 14.5 km/h 70% 0 mm 383 W/m2
12:24 16.6 °C 10.9 °C 1020.2 hPa WNW 9.5 km/h 17.7 km/h 69% 0 mm 301 W/m2
12:29 16.4 °C 10.9 °C 1020.2 hPa WNW 5.1 km/h 14.5 km/h 69.8% 0 mm 251 W/m2
12:34 16.6 °C 11.1 °C 1020.2 hPa WNW 4.5 km/h 11.3 km/h 70% 0 mm 250 W/m2
12:39 16.6 °C 11.1 °C 1020.2 hPa NW 8.4 km/h 12.9 km/h 70% 0 mm 253 W/m2
12:44 16.4 °C 10.8 °C 1020.2 hPa WNW 5.8 km/h 11.3 km/h 69.4% 0 mm 230 W/m2
12:49 16.4 °C 10.9 °C 1020.2 hPa WNW 6.3 km/h 11.3 km/h 69.8% 0 mm 267 W/m2
12:54 16.4 °C 10.6 °C 1020.2 hPa WNW 8.4 km/h 14.5 km/h 68.6% 0 mm 295 W/m2
12:59 16.6 °C 10.9 °C 1019.9 hPa WNW 3.9 km/h 12.9 km/h 69% 0 mm 304 W/m2
13:04 16.8 °C 11 °C 1019.9 hPa WNW 6.8 km/h 9.7 km/h 68.8% 0 mm 258 W/m2
13:09 16.7 °C 11 °C 1019.9 hPa NW 6 km/h 12.9 km/h 69% 0 mm 276 W/m2
13:14 16.7 °C 11.1 °C 1019.9 hPa West 9 km/h 14.5 km/h 69.4% 0 mm 329 W/m2
13:19 16.8 °C 11.3 °C 1019.9 hPa WNW 8.5 km/h 14.5 km/h 70% 0 mm 387 W/m2
13:24 17.2 °C 11.7 °C 1019.5 hPa WNW 12.6 km/h 19.3 km/h 70% 0 mm 397 W/m2
13:29 17.1 °C 11.6 °C 1019.5 hPa West 10.8 km/h 22.5 km/h 70% 0 mm 448 W/m2
13:34 17.2 °C 11.7 °C 1019.5 hPa WNW 10.5 km/h 14.5 km/h 70% 0 mm 459 W/m2
13:39 17.2 °C 11.6 °C 1019.5 hPa West 11.4 km/h 17.7 km/h 69.6% 0 mm 350 W/m2
13:44 17.2 °C 11.5 °C 1019.5 hPa WSW 13.8 km/h 19.3 km/h 69.2% 0 mm 362 W/m2
13:49 17.2 °C 11.4 °C 1019.5 hPa West 9.5 km/h 20.9 km/h 69% 0 mm 397 W/m2
13:54 17.2 °C 11.8 °C 1019.5 hPa WNW 12.9 km/h 24.1 km/h 70.2% 0 mm 418 W/m2
13:59 17.2 °C 11.9 °C 1019.5 hPa WNW 8.5 km/h 19.3 km/h 71.6% 0 mm 320 W/m2
14:04 17.1 °C 12.1 °C 1019.5 hPa WNW 11.3 km/h 20.9 km/h 72.4% 0 mm 336 W/m2
14:09 16.8 °C 12 °C 1019.2 hPa WNW 9.2 km/h 17.7 km/h 73.5% 0 mm 357 W/m2
14:14 16.7 °C 12.1 °C 1019.2 hPa WNW 10.6 km/h 20.9 km/h 74% 0 mm 357 W/m2
14:19 16.8 °C 12.1 °C 1019.2 hPa WNW 10.5 km/h 20.9 km/h 74% 0 mm 304 W/m2
14:24 16.7 °C 12 °C 1019.5 hPa WNW 8.9 km/h 20.9 km/h 74% 0 mm 339 W/m2
14:29 16.7 °C 12 °C 1019.2 hPa West 9.3 km/h 19.3 km/h 74% 0 mm 457 W/m2
14:34 16.7 °C 12 °C 1019.2 hPa WNW 14.2 km/h 20.9 km/h 74% 0 mm 605 W/m2
14:39 16.8 °C 12.1 °C 1019.2 hPa WNW 11.4 km/h 19.3 km/h 74% 0 mm 596 W/m2
14:44 16.8 °C 12 °C 1019.2 hPa WNW 12.6 km/h 27.4 km/h 73.6% 0 mm 485 W/m2
14:49 16.7 °C 11.9 °C 1019.2 hPa West 12.6 km/h 27.4 km/h 73.8% 0 mm 647 W/m2
14:54 16.9 °C 12.1 °C 1019.2 hPa West 10.3 km/h 27.4 km/h 73.4% 0 mm 585 W/m2
14:59 16.9 °C 12 °C 1019.2 hPa WNW 10.5 km/h 27.4 km/h 73% 0 mm 448 W/m2
15:04 17.1 °C 12.1 °C 1019.2 hPa West 8 km/h 20.9 km/h 73% 0 mm 420 W/m2
15:09 17.1 °C 12.1 °C 1019.2 hPa WNW 10.6 km/h 24.1 km/h 72.4% 0 mm 371 W/m2
15:14 16.9 °C 12 °C 1018.8 hPa WNW 10.1 km/h 19.3 km/h 73% 0 mm 403 W/m2
15:19 17.2 °C 12.2 °C 1018.8 hPa West 5.5 km/h 16.1 km/h 72.8% 0 mm 390 W/m2
15:24 17.1 °C 12.1 °C 1018.8 hPa WNW 12.2 km/h 22.5 km/h 72.4% 0 mm 462 W/m2
15:29 16.9 °C 11.9 °C 1018.8 hPa West 10.6 km/h 22.5 km/h 72.4% 0 mm 420 W/m2
15:34 16.9 °C 12 °C 1018.8 hPa WNW 7.7 km/h 17.7 km/h 73% 0 mm 403 W/m2
15:39 17 °C 12.1 °C 1018.8 hPa West 11.1 km/h 20.9 km/h 72.8% 0 mm 322 W/m2
15:44 16.8 °C 11.8 °C 1018.8 hPa WNW 11.6 km/h 19.3 km/h 73% 0 mm 250 W/m2
15:49 16.8 °C 11.9 °C 1018.8 hPa WNW 10.5 km/h 19.3 km/h 73% 0 mm 267 W/m2
15:54 16.8 °C 11.9 °C 1018.8 hPa WNW 10.5 km/h 16.1 km/h 73% 0 mm 304 W/m2
15:59 16.9 °C 12 °C 1018.8 hPa WNW 8.5 km/h 17.7 km/h 73% 0 mm 295 W/m2
16:04 17.1 °C 12.2 °C 1018.5 hPa WNW 7.2 km/h 14.5 km/h 73% 0 mm 283 W/m2
16:09 17.1 °C 12.1 °C 1018.5 hPa West 13.4 km/h 22.5 km/h 72.6% 0 mm 244 W/m2
16:14 16.8 °C 11.9 °C 1018.5 hPa WNW 15.1 km/h 27.4 km/h 73% 0 mm 251 W/m2
16:19 16.8 °C 11.9 °C 1018.5 hPa West 9.3 km/h 19.3 km/h 73.4% 0 mm 209 W/m2
16:24 16.8 °C 12.1 °C 1018.5 hPa West 7.2 km/h 20.9 km/h 73.6% 0 mm 227 W/m2
16:29 16.8 °C 12.1 °C 1018.2 hPa WNW 6.9 km/h 16.1 km/h 74% 0 mm 244 W/m2
16:34 16.7 °C 12.1 °C 1018.2 hPa NW 9.7 km/h 19.3 km/h 74% 0 mm 257 W/m2
16:39 16.7 °C 11.9 °C 1018.2 hPa WNW 12.6 km/h 19.3 km/h 74% 0 mm 218 W/m2
16:44 16.6 °C 12 °C 1018.5 hPa WNW 9 km/h 19.3 km/h 74.6% 0 mm 151 W/m2
16:49 16.5 °C 12.1 °C 1018.5 hPa WNW 14.2 km/h 22.5 km/h 75% 0 mm 155 W/m2
16:54 16.3 °C 11.9 °C 1018.5 hPa WNW 9.8 km/h 17.7 km/h 75% 0 mm 148 W/m2
16:59 16.3 °C 11.8 °C 1018.2 hPa WNW 12.9 km/h 20.9 km/h 75% 0 mm 137 W/m2
17:04 16.2 °C 11.8 °C 1018.5 hPa West 11.3 km/h 17.7 km/h 75% 0 mm 123 W/m2
17:09 16.2 °C 11.8 °C 1018.5 hPa WNW 9.3 km/h 17.7 km/h 75% 0 mm 125 W/m2
17:14 16.2 °C 11.8 °C 1018.2 hPa West 7.1 km/h 16.1 km/h 75% 0 mm 120 W/m2
17:19 16.3 °C 11.9 °C 1018.2 hPa West 8.5 km/h 12.9 km/h 75% 0 mm 111 W/m2
17:24 16.2 °C 11.8 °C 1018.2 hPa WNW 8.4 km/h 16.1 km/h 75% 0 mm 116 W/m2
17:29 16.2 °C 11.8 °C 1018.2 hPa WNW 9.2 km/h 17.7 km/h 75% 0 mm 128 W/m2
17:34 16.1 °C 11.7 °C 1017.8 hPa WNW 6.9 km/h 17.7 km/h 75% 0 mm 97 W/m2
17:39 16.1 °C 11.8 °C 1018.2 hPa WNW 7.7 km/h 17.7 km/h 75.8% 0 mm 70 W/m2
17:44 16 °C 11.8 °C 1017.8 hPa WNW 9 km/h 17.7 km/h 75.8% 0 mm 84 W/m2
17:49 15.9 °C 11.7 °C 1017.8 hPa WNW 10 km/h 16.1 km/h 76% 0 mm 81 W/m2
17:54 15.8 °C 11.7 °C 1017.8 hPa West 12.7 km/h 17.7 km/h 76% 0 mm 76 W/m2
17:59 15.8 °C 11.6 °C 1017.8 hPa West 9.7 km/h 19.3 km/h 76% 0 mm 83 W/m2
18:04 15.8 °C 11.6 °C 1017.8 hPa WNW 8 km/h 19.3 km/h 76% 0 mm 67 W/m2
18:09 15.8 °C 11.6 °C 1017.8 hPa West 8.5 km/h 20.9 km/h 76% 0 mm 97 W/m2
18:14 15.7 °C 11.5 °C 1017.8 hPa WNW 12.2 km/h 20.9 km/h 76% 0 mm 88 W/m2
18:19 15.7 °C 11.4 °C 1017.8 hPa WNW 11.6 km/h 20.9 km/h 76% 0 mm 97 W/m2
18:24 15.6 °C 11.4 °C 1017.8 hPa West 9 km/h 16.1 km/h 76% 0 mm 84 W/m2
18:29 15.7 °C 11.6 °C 1017.8 hPa West 7.7 km/h 14.5 km/h 76.6% 0 mm 49 W/m2
18:34 15.5 °C 11.4 °C 1017.8 hPa West 14.2 km/h 20.9 km/h 76.6% 0 mm 69 W/m2
18:39 15.4 °C 11.4 °C 1017.8 hPa WNW 10.9 km/h 22.5 km/h 77% 0 mm 79 W/m2
18:44 15.3 °C 11.4 °C 1017.5 hPa WNW 13.5 km/h 22.5 km/h 77.4% 0 mm 95 W/m2
18:49 15.3 °C 11.5 °C 1017.5 hPa West 8 km/h 20.9 km/h 78% 0 mm 76 W/m2
18:54 15.3 °C 11.7 °C 1017.5 hPa WNW 10 km/h 20.9 km/h 79% 0 mm 58 W/m2
18:59 15.2 °C 11.6 °C 1017.5 hPa West 11.6 km/h 25.7 km/h 79.2% 0 mm 97 W/m2
19:04 15.1 °C 11.7 °C 1017.5 hPa West 7.4 km/h 14.5 km/h 80% 0 mm 132 W/m2
19:09 15.1 °C 11.8 °C 1017.5 hPa WNW 9.5 km/h 16.1 km/h 80.6% 0 mm 69 W/m2
19:14 14.8 °C 11.8 °C 1017.5 hPa WNW 7.7 km/h 16.1 km/h 81.6% 0 mm 49 W/m2
19:19 14.8 °C 11.8 °C 1017.5 hPa WNW 8.9 km/h 14.5 km/h 82% 0 mm 37 W/m2
19:24 14.7 °C 11.8 °C 1017.5 hPa WNW 5 km/h 12.9 km/h 83% 0 mm 26 W/m2
19:29 14.6 °C 11.9 °C 1017.5 hPa WNW 4.7 km/h 8 km/h 84% 0 mm 42 W/m2
19:34 14.6 °C 11.8 °C 1017.2 hPa WNW 4.5 km/h 9.7 km/h 84% 0 mm 46 W/m2
19:39 14.6 °C 12 °C 1017.2 hPa WNW 6 km/h 11.3 km/h 84.6% 0 mm 44 W/m2
19:44 14.6 °C 12.1 °C 1017.2 hPa NW 5.8 km/h 12.9 km/h 85% 0 mm 32 W/m2
19:49 14.5 °C 12 °C 1017.2 hPa West 6.4 km/h 14.5 km/h 85% 0 mm 33 W/m2
19:54 14.5 °C 12 °C 1016.8 hPa WNW 1.9 km/h 11.3 km/h 85% 0 mm 26 W/m2
19:59 14.5 °C 12.2 °C 1017.2 hPa West 5.1 km/h 12.9 km/h 85.8% 0 mm 25 W/m2
20:04 14.6 °C 12.1 °C 1017.2 hPa West 8.7 km/h 14.5 km/h 85% 0 mm 21 W/m2
20:09 14.5 °C 12 °C 1017.2 hPa West 8.7 km/h 17.7 km/h 85% 0 mm 19 W/m2
20:14 14.5 °C 12 °C 1017.2 hPa West 8 km/h 14.5 km/h 85% 0 mm 19 W/m2
20:19 14.5 °C 12 °C 1016.8 hPa West 8.5 km/h 12.9 km/h 85% 0 mm 16 W/m2
20:24 14.4 °C 11.9 °C 1016.8 hPa West 6.4 km/h 17.7 km/h 85% 0 mm 12 W/m2
20:29 14.4 °C 11.9 °C 1016.8 hPa West 6.8 km/h 12.9 km/h 85% 0 mm 12 W/m2
20:34 14.4 °C 12.1 °C 1016.8 hPa West 7.2 km/h 16.1 km/h 86% 0 mm 12 W/m2
20:39 14.4 °C 12.1 °C 1016.8 hPa West 7.1 km/h 16.1 km/h 86% 0 mm 12 W/m2
20:44 14.4 °C 12.1 °C 1016.8 hPa West 11.6 km/h 20.9 km/h 86% 0 mm 12 W/m2
20:49 14.3 °C 12.1 °C 1016.8 hPa West 7.6 km/h 19.3 km/h 86.3% 0 mm 12 W/m2
20:54 14.2 °C 12.2 °C 1016.8 hPa West 8.7 km/h 19.3 km/h 87% 0 mm 11 W/m2
20:59 14.2 °C 12.1 °C 1016.8 hPa WSW 8.4 km/h 14.5 km/h 87.2% 0 mm 11 W/m2
21:04 14.2 °C 12.2 °C 1016.8 hPa West 5.8 km/h 14.5 km/h 88% 0 mm 12 W/m2
21:09 14.2 °C 12.2 °C 1016.5 hPa WSW 5.3 km/h 14.5 km/h 88% 0 mm 7 W/m2
21:14 14.2 °C 12.2 °C 1016.5 hPa WSW 5.6 km/h 12.9 km/h 88% 0 mm 0 W/m2
21:19 14.2 °C 12.2 °C 1016.5 hPa WNW 3.1 km/h 8 km/h 88% 0 mm 0 W/m2
21:24 14.2 °C 12.2 °C 1016.5 hPa West 3.7 km/h 8 km/h 88% 0 mm 0 W/m2
21:29 14.2 °C 12.2 °C 1016.5 hPa WSW 4.5 km/h 12.9 km/h 88.2% 0 mm 0 W/m2
21:34 14.2 °C 12.4 °C 1016.5 hPa WSW 4.7 km/h 12.9 km/h 89% 0 mm 0 W/m2
21:39 14.2 °C 12.4 °C 1016.1 hPa WSW 4.5 km/h 11.3 km/h 89% 0 mm 0 W/m2
21:44 14.2 °C 12.4 °C 1016.1 hPa WSW 4.3 km/h 9.7 km/h 89% 0 mm 0 W/m2
21:49 14.2 °C 12.4 °C 1016.1 hPa WSW 5.1 km/h 11.3 km/h 89% 0 mm 0 W/m2
21:54 14.2 °C 12.4 °C 1016.1 hPa WSW 3.2 km/h 11.3 km/h 89% 0 mm 0 W/m2
21:59 14.2 °C 12.4 °C 1016.5 hPa WSW 3.5 km/h 9.7 km/h 89% 0 mm 0 W/m2
22:04 14.2 °C 12.4 °C 1016.5 hPa West 3.2 km/h 8 km/h 89% 0 mm 0 W/m2
22:09 14.2 °C 12.4 °C 1016.5 hPa West 3.2 km/h 9.7 km/h 89% 0 mm 0 W/m2
22:14 14.2 °C 12.4 °C 1016.5 hPa WSW 4.5 km/h 14.5 km/h 89% 0 mm 0 W/m2
22:19 14.3 °C 12.4 °C 1016.5 hPa WSW 5.8 km/h 11.3 km/h 89% 0 mm 0 W/m2
22:24 14.3 °C 12.5 °C 1016.5 hPa WSW 4.5 km/h 9.7 km/h 89% 0 mm 0 W/m2
22:29 14.3 °C 12.5 °C 1016.5 hPa WSW 5.8 km/h 11.3 km/h 89% 0 mm 0 W/m2
22:34 14.3 °C 12.5 °C 1016.5 hPa WSW 7.2 km/h 14.5 km/h 89% 0 mm 0 W/m2
22:39 14.3 °C 12.5 °C 1016.5 hPa West 4.5 km/h 9.7 km/h 89% 0 mm 0 W/m2
22:44 14.2 °C 12.4 °C 1016.5 hPa WSW 4.5 km/h 14.5 km/h 89% 0 mm 0 W/m2
22:49 14.2 °C 12.6 °C 1016.5 hPa West 7.2 km/h 11.3 km/h 90% 0 mm 0 W/m2
22:54 14.2 °C 12.6 °C 1016.5 hPa WSW 6.4 km/h 11.3 km/h 90% 0 mm 0 W/m2
22:59 14.2 °C 12.6 °C 1016.5 hPa WNW 2.7 km/h 11.3 km/h 90% 0 mm 0 W/m2
23:04 14.2 °C 12.6 °C 1016.1 hPa West 1.8 km/h 8 km/h 90% 0 mm 0 W/m2
23:09 14.2 °C 12.6 °C 1016.1 hPa WSW 3.4 km/h 12.9 km/h 90% 0 mm 0 W/m2
23:14 14.2 °C 12.7 °C 1016.1 hPa WSW 3.7 km/h 12.9 km/h 90.4% 0.25 mm 0 W/m2
23:19 14.2 °C 12.8 °C 1016.1 hPa WSW 2.9 km/h 12.9 km/h 91% 0.25 mm 0 W/m2
23:24 14.2 °C 12.8 °C 1016.1 hPa WSW 4 km/h 9.7 km/h 91% 0.25 mm 0 W/m2
23:29 14.2 °C 12.8 °C 1016.1 hPa WSW 4.3 km/h 12.9 km/h 91% 0.25 mm 0 W/m2
23:34 14.1 °C 12.7 °C 1016.1 hPa WSW 2.9 km/h 8 km/h 91% 0.51 mm 0 W/m2
23:39 14.1 °C 12.7 °C 1016.1 hPa WSW 4.2 km/h 11.3 km/h 91% 0.51 mm 0 W/m2
23:44 14.1 °C 12.7 °C 1015.8 hPa WSW 3.9 km/h 9.7 km/h 91% 0.51 mm 0 W/m2
23:49 14.1 °C 12.7 °C 1015.8 hPa West 4.7 km/h 8 km/h 91% 0.51 mm 0 W/m2
23:54 14.1 °C 12.8 °C 1015.8 hPa WSW 3.4 km/h 9.7 km/h 91.8% 0.51 mm 0 W/m2
23:59 14.1 °C 12.8 °C 1015.8 hPa WSW 2.6 km/h 6.4 km/h 92% 0.76 mm 0 W/m2
Bath Spa Weather
Compliments of Weather Underground - 2 mb